createdAt,value
2023-03-05T00:00:10.305Z,46.60
2023-03-05T00:02:36.951Z,46.60
2023-03-05T00:05:03.543Z,46.50
2023-03-05T00:07:30.152Z,46.70
2023-03-05T00:09:58.827Z,46.70
2023-03-05T00:12:25.420Z,46.60
2023-03-05T00:14:52.032Z,46.60
2023-03-05T00:17:18.770Z,46.90
2023-03-05T00:19:45.518Z,46.60
2023-03-05T00:22:12.125Z,46.80
2023-03-05T00:24:38.684Z,46.80
2023-03-05T00:27:05.258Z,46.80
2023-03-05T00:29:31.921Z,46.80
2023-03-05T00:31:58.488Z,46.70
2023-03-05T00:34:25.860Z,46.80
2023-03-05T00:36:52.690Z,46.90
2023-03-05T00:39:20.369Z,46.80
2023-03-05T00:41:47.099Z,46.80
2023-03-05T00:44:13.744Z,46.80
2023-03-05T00:46:40.429Z,46.80
2023-03-05T00:49:07.521Z,46.80
2023-03-05T00:51:34.316Z,46.90
2023-03-05T00:54:00.904Z,47.00
2023-03-05T00:56:27.749Z,47.00
2023-03-05T00:58:54.420Z,46.80
2023-03-05T01:01:21.124Z,46.80
2023-03-05T01:03:47.738Z,46.90
2023-03-05T01:06:16.429Z,47.00
2023-03-05T01:08:43.476Z,46.90
2023-03-05T01:11:10.389Z,47.10
2023-03-05T01:13:37.084Z,47.00
2023-03-05T01:16:04.465Z,47.00
2023-03-05T01:18:31.050Z,47.00
2023-03-05T01:20:57.595Z,47.00
2023-03-05T01:23:24.207Z,47.10
2023-03-05T01:25:57.918Z,47.10
2023-03-05T01:28:24.845Z,47.10
2023-03-05T01:30:51.514Z,47.10
2023-03-05T01:33:18.542Z,47.10
2023-03-05T01:35:49.138Z,47.10
2023-03-05T01:38:16.227Z,47.10
2023-03-05T01:40:43.929Z,47.00
2023-03-05T01:43:10.593Z,47.00
2023-03-05T01:45:38.053Z,47.20
2023-03-05T01:48:04.646Z,47.10
2023-03-05T01:50:31.330Z,46.80
2023-03-05T01:53:00.727Z,47.30
2023-03-05T01:55:29.097Z,46.80
2023-03-05T01:58:12.813Z,46.80
2023-03-05T02:00:50.876Z,46.70
2023-03-05T02:03:17.595Z,47.50
2023-03-05T02:05:44.507Z,46.60
2023-03-05T02:08:12.675Z,46.80
2023-03-05T02:10:44.074Z,46.80
2023-03-05T02:13:13.327Z,46.80
2023-03-05T02:15:41.740Z,46.60
2023-03-05T02:18:09.509Z,46.80
2023-03-05T02:21:02.427Z,46.80
2023-03-05T02:23:30.471Z,46.60
2023-03-05T02:25:57.061Z,46.60
2023-03-05T02:28:23.650Z,46.30
2023-03-05T02:30:50.326Z,46.50
2023-03-05T02:33:17.796Z,46.90
2023-03-05T02:35:46.207Z,46.70
2023-03-05T02:38:17.208Z,46.70
2023-03-05T02:40:43.896Z,46.60
2023-03-05T02:43:10.670Z,46.60
2023-03-05T02:45:37.509Z,46.70
2023-03-05T02:48:04.435Z,46.50
2023-03-05T02:50:31.522Z,46.40
2023-03-05T02:52:58.115Z,46.50
2023-03-05T02:55:24.692Z,46.50
2023-03-05T02:57:51.284Z,46.60
2023-03-05T03:00:18.014Z,46.70
2023-03-05T03:02:44.602Z,46.80
2023-03-05T03:05:11.224Z,46.60
2023-03-05T03:07:37.958Z,46.40
2023-03-05T03:10:05.223Z,46.50
2023-03-05T03:12:31.823Z,46.60
2023-03-05T03:15:00.720Z,46.40
2023-03-05T03:17:27.303Z,46.20
2023-03-05T03:19:53.856Z,46.50
2023-03-05T03:22:20.442Z,46.50
2023-03-05T03:24:46.994Z,46.60
2023-03-05T03:27:13.572Z,46.70
2023-03-05T03:29:40.127Z,46.30
2023-03-05T03:32:08.258Z,46.40
2023-03-05T03:34:34.850Z,46.00
2023-03-05T03:37:01.498Z,46.10
2023-03-05T03:39:28.084Z,46.20
2023-03-05T03:41:54.792Z,46.50
2023-03-05T03:44:21.645Z,47.00
2023-03-05T03:46:48.830Z,46.50
2023-03-05T03:49:17.338Z,46.10
2023-03-05T03:51:43.912Z,46.10
2023-03-05T03:54:10.506Z,46.00
2023-03-05T03:56:37.051Z,46.00
2023-03-05T03:59:03.616Z,45.90
2023-03-05T04:01:30.228Z,46.00
2023-03-05T04:03:56.975Z,46.00
2023-03-05T04:06:23.808Z,46.00
2023-03-05T04:08:50.511Z,45.90
2023-03-05T04:11:19.351Z,45.80
2023-03-05T04:13:46.426Z,45.70
2023-03-05T04:16:13.390Z,45.80
2023-03-05T04:18:40.243Z,45.60
2023-03-05T04:21:06.819Z,45.80
2023-03-05T04:23:33.434Z,45.40
2023-03-05T04:25:59.989Z,45.80
2023-03-05T04:28:26.566Z,45.60
2023-03-05T04:30:53.202Z,45.60
2023-03-05T04:33:19.937Z,45.50
2023-03-05T04:35:46.542Z,45.60
2023-03-05T04:38:13.250Z,45.60
2023-03-05T04:40:39.958Z,45.80
2023-03-05T04:43:06.898Z,45.80
2023-03-05T04:45:33.535Z,46.10
2023-03-05T04:48:00.164Z,45.80
2023-03-05T04:50:26.793Z,45.60
2023-03-05T04:52:53.368Z,45.60
2023-03-05T04:55:19.985Z,45.70
2023-03-05T04:57:46.581Z,45.60
2023-03-05T05:00:14.513Z,45.60
2023-03-05T05:02:45.005Z,45.70
2023-03-05T05:05:13.187Z,45.60
2023-03-05T05:07:39.826Z,45.60
2023-03-05T05:10:08.006Z,45.60
2023-03-05T05:12:35.527Z,45.70
2023-03-05T05:15:02.314Z,45.40
2023-03-05T05:17:30.900Z,45.40
2023-03-05T05:19:57.569Z,45.60
2023-03-05T05:22:24.160Z,45.50
2023-03-05T05:24:50.736Z,45.40
2023-03-05T05:27:17.285Z,45.50
2023-03-05T05:29:45.256Z,45.50
2023-03-05T05:32:12.148Z,45.50
2023-03-05T05:34:38.766Z,45.80
2023-03-05T05:37:05.344Z,45.80
2023-03-05T05:39:31.932Z,45.60
2023-03-05T05:41:58.500Z,45.20
2023-03-05T05:44:25.076Z,45.20
2023-03-05T05:46:51.628Z,45.20
2023-03-05T05:49:18.267Z,45.20
2023-03-05T05:51:44.835Z,45.30
2023-03-05T05:54:15.186Z,45.00
2023-03-05T05:56:42.170Z,45.70
2023-03-05T05:59:10.257Z,45.40
2023-03-05T06:01:36.993Z,45.90
2023-03-05T06:04:04.051Z,45.60
2023-03-05T06:06:30.859Z,45.20
2023-03-05T06:08:57.480Z,45.50
2023-03-05T06:11:24.071Z,45.40
2023-03-05T06:13:50.740Z,45.60
2023-03-05T06:16:21.765Z,45.40
2023-03-05T06:18:48.325Z,45.50
2023-03-05T06:21:16.586Z,45.40
2023-03-05T06:23:44.017Z,45.50
2023-03-05T06:26:11.557Z,45.20
2023-03-05T06:28:38.104Z,45.40
2023-03-05T06:31:06.415Z,45.40
2023-03-05T06:33:33.535Z,45.50
2023-03-05T06:36:02.330Z,45.40
2023-03-05T06:38:28.972Z,45.40
2023-03-05T06:40:55.554Z,45.60
2023-03-05T06:43:22.134Z,45.60
2023-03-05T06:45:48.723Z,45.60
2023-03-05T06:48:15.343Z,45.70
2023-03-05T06:50:41.916Z,45.70
2023-03-05T06:53:08.488Z,46.30
2023-03-05T06:55:39.602Z,45.60
2023-03-05T06:58:06.743Z,45.90
2023-03-05T07:00:33.382Z,45.60
2023-03-05T07:03:00.040Z,45.60
2023-03-05T07:05:26.613Z,45.60
2023-03-05T07:07:53.206Z,45.50
2023-03-05T07:10:19.805Z,45.50
2023-03-05T07:12:46.717Z,45.80
2023-03-05T07:15:13.294Z,45.60
2023-03-05T07:17:39.893Z,45.60
2023-03-05T07:20:06.904Z,45.60
2023-03-05T07:22:33.472Z,45.60
2023-03-05T07:25:00.050Z,45.40
2023-03-05T07:27:26.734Z,45.50
2023-03-05T07:29:53.397Z,45.60
2023-03-05T07:32:20.022Z,45.80
2023-03-05T07:34:46.697Z,45.80
2023-03-05T07:37:13.719Z,46.00
2023-03-05T07:39:40.275Z,46.60
2023-03-05T07:42:06.996Z,46.40
2023-03-05T07:44:33.579Z,46.20
2023-03-05T07:47:00.265Z,46.20
2023-03-05T07:49:26.973Z,46.10
2023-03-05T07:51:53.516Z,46.10
2023-03-05T07:54:20.192Z,46.10
2023-03-05T07:56:46.755Z,46.00
2023-03-05T07:59:13.734Z,46.10
2023-03-05T08:01:40.516Z,46.10
2023-03-05T08:04:08.018Z,46.00
2023-03-05T08:06:34.709Z,46.00
2023-03-05T08:09:01.342Z,46.10
2023-03-05T08:11:28.722Z,45.90
2023-03-05T08:13:56.202Z,46.10
2023-03-05T08:16:25.884Z,45.80
2023-03-05T08:18:57.196Z,46.20
2023-03-05T08:21:41.900Z,46.20
2023-03-05T08:24:08.736Z,46.20
2023-03-05T08:26:37.683Z,46.20
2023-03-05T08:29:04.549Z,46.40
2023-03-05T08:31:31.421Z,46.40
2023-03-05T08:33:59.060Z,46.30
2023-03-05T08:36:25.739Z,47.10
2023-03-05T08:38:52.369Z,48.60
2023-03-05T08:41:19.297Z,47.80
2023-03-05T08:43:45.964Z,47.50
2023-03-05T08:46:13.025Z,47.50
2023-03-05T08:48:39.946Z,47.60
2023-03-05T08:51:16.298Z,46.90
2023-03-05T08:53:43.608Z,46.50
2023-03-05T08:56:10.542Z,46.70
2023-03-05T08:58:37.124Z,46.80
2023-03-05T09:01:04.517Z,46.70
2023-03-05T09:03:31.390Z,46.90
2023-03-05T09:06:01.690Z,46.70
2023-03-05T09:08:29.028Z,47.60
2023-03-05T09:10:56.308Z,51.90
2023-03-05T09:13:23.010Z,50.80
2023-03-05T09:16:00.120Z,51.90
2023-03-05T09:18:26.833Z,50.30
2023-03-05T09:20:53.540Z,48.60
2023-03-05T09:23:20.384Z,48.40
2023-03-05T09:25:47.048Z,48.10
2023-03-05T09:28:13.652Z,47.70
2023-03-05T09:30:40.243Z,47.80
2023-03-05T09:33:06.794Z,49.00
2023-03-05T09:35:37.025Z,48.30
2023-03-05T09:38:04.154Z,48.60
2023-03-05T09:40:37.229Z,47.50
2023-03-05T09:43:03.756Z,47.40
2023-03-05T09:45:32.834Z,47.30
2023-03-05T09:48:15.361Z,47.30
2023-03-05T09:50:43.447Z,47.30
2023-03-05T09:53:25.368Z,47.20
2023-03-05T09:55:56.327Z,47.50
2023-03-05T09:58:37.232Z,47.50
2023-03-05T10:01:10.179Z,47.70
2023-03-05T10:03:36.755Z,47.50
2023-03-05T10:06:13.168Z,47.30
2023-03-05T10:08:58.161Z,49.30
2023-03-05T10:11:24.711Z,48.50
2023-03-05T10:13:52.216Z,47.70
2023-03-05T10:16:18.818Z,47.20
2023-03-05T10:18:57.771Z,47.00
2023-03-05T10:21:30.648Z,46.80
2023-03-05T10:24:00.866Z,46.60
2023-03-05T10:26:30.463Z,46.70
2023-03-05T10:29:07.853Z,46.60
2023-03-05T10:31:56.374Z,46.50
2023-03-05T10:34:27.876Z,46.30
2023-03-05T10:37:07.506Z,46.40
2023-03-05T10:39:37.082Z,46.20
2023-03-05T10:42:20.672Z,46.10
2023-03-05T10:44:49.005Z,46.10
2023-03-05T10:47:27.973Z,46.20
2023-03-05T10:49:55.427Z,46.20
2023-03-05T10:52:36.663Z,46.00
2023-03-05T10:55:13.257Z,46.00
2023-03-05T10:57:39.831Z,46.20
2023-03-05T11:00:06.536Z,45.80
2023-03-05T11:02:33.924Z,45.70
2023-03-05T11:05:00.590Z,45.40
2023-03-05T11:07:32.477Z,45.50
2023-03-05T11:10:05.453Z,45.40
2023-03-05T11:12:33.412Z,45.40
2023-03-05T11:15:05.635Z,45.00
2023-03-05T11:17:37.827Z,45.10
2023-03-05T11:20:29.470Z,44.90
2023-03-05T11:23:02.757Z,44.80
2023-03-05T11:25:29.880Z,44.80
2023-03-05T11:27:57.754Z,44.80
2023-03-05T11:30:28.812Z,44.50
2023-03-05T11:33:10.796Z,45.10
2023-03-05T11:35:38.671Z,44.50
2023-03-05T11:38:06.271Z,44.60
2023-03-05T11:40:35.758Z,44.50
2023-03-05T11:43:04.144Z,44.40
2023-03-05T11:45:32.174Z,44.10
2023-03-05T11:48:08.309Z,44.30
2023-03-05T11:50:35.816Z,44.50
2023-03-05T11:53:09.341Z,44.60
2023-03-05T11:55:54.942Z,44.70
2023-03-05T11:58:27.818Z,44.60
2023-03-05T12:00:54.682Z,44.80
2023-03-05T12:03:22.904Z,44.50
2023-03-05T12:06:12.976Z,44.70
2023-03-05T12:08:42.000Z,44.70
2023-03-05T12:11:26.925Z,45.00
2023-03-05T12:13:56.255Z,44.90
2023-03-05T12:16:26.147Z,45.10
2023-03-05T12:18:57.726Z,45.20
2023-03-05T12:21:34.004Z,45.20
2023-03-05T12:24:02.293Z,44.90
2023-03-05T12:26:47.963Z,45.30
2023-03-05T12:29:47.436Z,45.20
2023-03-05T12:32:23.408Z,45.30
2023-03-05T12:34:55.937Z,45.20
2023-03-05T12:37:23.261Z,45.40
2023-03-05T12:39:58.922Z,45.30
2023-03-05T12:42:28.646Z,45.30
2023-03-05T12:45:16.191Z,45.50
2023-03-05T12:48:12.101Z,45.50
2023-03-05T12:50:38.737Z,45.60
2023-03-05T12:53:18.709Z,46.00
2023-03-05T12:55:48.252Z,45.90
2023-03-05T12:58:25.696Z,45.50
2023-03-05T13:01:10.952Z,45.50
2023-03-05T13:03:45.017Z,45.40
2023-03-05T13:06:28.637Z,45.20
2023-03-05T13:08:56.177Z,45.20
2023-03-05T13:11:22.770Z,45.20
2023-03-05T13:13:50.282Z,45.30
2023-03-05T13:16:22.198Z,45.30
2023-03-05T13:18:49.264Z,44.90
2023-03-05T13:21:17.536Z,45.40
2023-03-05T13:23:57.694Z,45.70
2023-03-05T13:26:28.535Z,45.90
2023-03-05T13:29:12.257Z,45.80
2023-03-05T13:31:49.354Z,45.90
2023-03-05T13:34:18.658Z,45.70
2023-03-05T13:36:46.429Z,45.80
2023-03-05T13:39:24.837Z,45.80
2023-03-05T13:41:58.939Z,45.80
2023-03-05T13:44:25.725Z,45.80
2023-03-05T13:46:52.310Z,45.80
2023-03-05T13:49:26.583Z,45.90
2023-03-05T13:51:54.651Z,46.00
2023-03-05T13:54:22.335Z,46.00
2023-03-05T13:57:18.062Z,46.30
2023-03-05T13:59:52.776Z,46.20
2023-03-05T14:02:20.085Z,46.20
2023-03-05T14:04:47.316Z,46.20
2023-03-05T14:07:26.849Z,46.40
2023-03-05T14:09:53.707Z,46.20
2023-03-05T14:12:23.278Z,46.20
2023-03-05T14:14:50.139Z,46.40
2023-03-05T14:17:23.764Z,46.30
2023-03-05T14:19:50.399Z,46.40
2023-03-05T14:22:33.852Z,46.20
2023-03-05T14:25:00.444Z,46.60
2023-03-05T14:27:28.350Z,46.10
2023-03-05T14:29:54.925Z,46.30
2023-03-05T14:32:21.509Z,46.20
2023-03-05T14:34:50.833Z,46.30
2023-03-05T14:37:20.315Z,46.30
2023-03-05T14:39:51.562Z,46.20
2023-03-05T14:42:28.940Z,46.10
2023-03-05T14:44:56.443Z,46.20
2023-03-05T14:47:24.193Z,45.90
2023-03-05T14:49:50.776Z,45.80
2023-03-05T14:52:19.603Z,45.80
2023-03-05T14:54:46.582Z,45.70
2023-03-05T14:57:15.272Z,45.70
2023-03-05T14:59:41.922Z,45.70
2023-03-05T15:02:15.889Z,45.50
2023-03-05T15:04:42.637Z,45.90
2023-03-05T15:07:12.749Z,45.70
2023-03-05T15:09:39.284Z,45.50
2023-03-05T15:12:05.910Z,45.80
2023-03-05T15:14:32.528Z,45.80
2023-03-05T15:16:59.881Z,45.70
2023-03-05T15:19:26.436Z,45.80
2023-03-05T15:21:53.003Z,45.90
2023-03-05T15:24:19.633Z,45.90
2023-03-05T15:26:46.202Z,45.50
2023-03-05T15:29:12.847Z,45.30
2023-03-05T15:31:40.450Z,45.80
2023-03-05T15:34:07.239Z,45.40
2023-03-05T15:36:33.934Z,45.70
2023-03-05T15:39:00.600Z,45.60
2023-03-05T15:41:27.261Z,45.30
2023-03-05T15:43:53.878Z,45.60
2023-03-05T15:46:20.481Z,45.40
2023-03-05T15:48:49.981Z,45.30
2023-03-05T15:51:17.315Z,45.20
2023-03-05T15:53:45.229Z,45.00
2023-03-05T15:56:18.559Z,45.50
2023-03-05T15:58:45.158Z,45.40
2023-03-05T16:01:12.340Z,45.50
2023-03-05T16:03:39.028Z,45.50
2023-03-05T16:06:05.819Z,45.40
2023-03-05T16:08:33.495Z,45.30
2023-03-05T16:11:00.162Z,45.80
2023-03-05T16:13:29.223Z,45.60
2023-03-05T16:15:56.511Z,45.40
2023-03-05T16:18:23.374Z,45.40
2023-03-05T16:20:50.641Z,45.60
2023-03-05T16:23:17.620Z,45.80
2023-03-05T16:25:44.298Z,45.60
2023-03-05T16:28:10.878Z,45.70
2023-03-05T16:30:38.172Z,45.50
2023-03-05T16:33:04.761Z,45.50
2023-03-05T16:35:31.723Z,45.40
2023-03-05T16:37:58.589Z,45.30
2023-03-05T16:40:27.030Z,45.30
2023-03-05T16:42:53.637Z,45.30
2023-03-05T16:45:20.305Z,45.10
2023-03-05T16:47:46.934Z,45.30
2023-03-05T16:50:13.539Z,45.30
2023-03-05T16:52:40.148Z,45.30
2023-03-05T16:55:06.849Z,45.50
2023-03-05T16:57:33.499Z,45.40
2023-03-05T17:00:02.447Z,45.30
2023-03-05T17:02:29.072Z,45.20
2023-03-05T17:04:57.389Z,44.80
2023-03-05T17:07:26.302Z,45.30
2023-03-05T17:09:53.303Z,45.00
2023-03-05T17:12:20.561Z,45.20
2023-03-05T17:14:47.817Z,45.20
2023-03-05T17:17:14.726Z,45.00
2023-03-05T17:19:41.308Z,44.90
2023-03-05T17:22:08.002Z,44.80
2023-03-05T17:24:34.569Z,45.00
2023-03-05T17:27:01.158Z,45.40
2023-03-05T17:29:27.838Z,45.20
2023-03-05T17:31:54.507Z,45.10
2023-03-05T17:34:33.362Z,45.00
2023-03-05T17:37:02.058Z,45.30
2023-03-05T17:39:28.702Z,45.40
2023-03-05T17:41:55.309Z,44.90
2023-03-05T17:44:21.894Z,45.00
2023-03-05T17:46:48.490Z,45.20
2023-03-05T17:49:15.080Z,45.10
2023-03-05T17:51:41.633Z,46.00
2023-03-05T17:54:08.226Z,45.40
2023-03-05T17:56:34.826Z,45.40
2023-03-05T17:59:01.507Z,45.20
2023-03-05T18:01:29.622Z,45.40
2023-03-05T18:03:56.638Z,45.20
2023-03-05T18:06:23.627Z,45.40
2023-03-05T18:08:50.184Z,45.60
2023-03-05T18:11:17.023Z,45.80
2023-03-05T18:13:43.609Z,45.40
2023-03-05T18:16:10.613Z,46.10
2023-03-05T18:18:37.898Z,45.50
2023-03-05T18:21:04.607Z,45.80
2023-03-05T18:23:31.245Z,45.80
2023-03-05T18:25:57.873Z,45.30
2023-03-05T18:28:25.865Z,45.10
2023-03-05T18:30:52.464Z,45.40
2023-03-05T18:33:20.396Z,45.30
2023-03-05T18:35:49.555Z,45.70
2023-03-05T18:38:16.293Z,44.80
2023-03-05T18:40:43.705Z,44.90
2023-03-05T18:43:10.572Z,44.90
2023-03-05T18:45:37.269Z,45.00
2023-03-05T18:48:03.978Z,45.10
2023-03-05T18:50:30.779Z,44.90
2023-03-05T18:52:57.484Z,45.00
2023-03-05T18:55:28.416Z,45.70
2023-03-05T18:57:55.165Z,45.60
2023-03-05T19:00:26.133Z,45.70
2023-03-05T19:02:53.228Z,45.70
2023-03-05T19:05:19.929Z,45.70
2023-03-05T19:07:46.900Z,45.80
2023-03-05T19:10:15.566Z,45.50
2023-03-05T19:13:05.703Z,45.50
2023-03-05T19:15:32.392Z,45.50
2023-03-05T19:17:59.194Z,45.10
2023-03-05T19:20:25.916Z,45.20
2023-03-05T19:22:52.564Z,44.70
2023-03-05T19:25:19.215Z,44.60
2023-03-05T19:27:45.859Z,44.60
2023-03-05T19:30:12.903Z,44.60
2023-03-05T19:32:39.547Z,44.70
2023-03-05T19:35:06.260Z,44.80
2023-03-05T19:37:32.978Z,44.90
2023-03-05T19:39:59.576Z,44.70
2023-03-05T19:42:26.312Z,44.70
2023-03-05T19:44:54.575Z,45.00
2023-03-05T19:47:21.128Z,44.70
2023-03-05T19:49:47.749Z,44.80
2023-03-05T19:52:14.350Z,44.90
2023-03-05T19:54:41.015Z,44.70
2023-03-05T19:57:07.659Z,44.70
2023-03-05T19:59:34.393Z,45.60
2023-03-05T20:02:01.102Z,44.90
2023-03-05T20:04:28.146Z,45.10
2023-03-05T20:06:54.804Z,45.20
2023-03-05T20:09:21.640Z,45.00
2023-03-05T20:11:48.296Z,45.00
2023-03-05T20:14:15.158Z,44.80
2023-03-05T20:16:43.148Z,45.00
2023-03-05T20:19:14.414Z,45.00
2023-03-05T20:21:41.394Z,45.00
2023-03-05T20:24:09.974Z,45.00
2023-03-05T20:26:37.832Z,45.10
2023-03-05T20:29:04.925Z,45.20
2023-03-05T20:31:33.922Z,45.20
2023-03-05T20:34:00.576Z,45.20
2023-03-05T20:36:27.239Z,45.30
2023-03-05T20:38:53.902Z,45.00
2023-03-05T20:41:24.335Z,45.10
2023-03-05T20:43:51.403Z,45.50
2023-03-05T20:46:22.743Z,45.20
2023-03-05T20:48:50.826Z,45.20
2023-03-05T20:51:27.895Z,45.30
2023-03-05T20:53:57.950Z,45.00
2023-03-05T20:56:25.342Z,45.00
2023-03-05T20:58:52.032Z,45.40
2023-03-05T21:01:18.664Z,45.00
2023-03-05T21:03:45.252Z,45.50
2023-03-05T21:06:11.858Z,45.60
2023-03-05T21:08:38.680Z,45.20
2023-03-05T21:11:10.610Z,45.40
2023-03-05T21:13:37.270Z,45.00
2023-03-05T21:16:11.881Z,45.30
2023-03-05T21:18:38.460Z,44.90
2023-03-05T21:21:05.401Z,44.80
2023-03-05T21:23:32.164Z,45.00
2023-03-05T21:25:58.832Z,45.40
2023-03-05T21:28:25.439Z,45.40
2023-03-05T21:30:53.423Z,45.20
2023-03-05T21:33:23.014Z,45.20
2023-03-05T21:35:52.557Z,45.20
2023-03-05T21:38:23.163Z,45.20
2023-03-05T21:40:50.320Z,45.20
2023-03-05T21:43:17.901Z,45.30
2023-03-05T21:45:47.248Z,45.10
2023-03-05T21:48:14.912Z,45.10
2023-03-05T21:50:42.643Z,45.10
2023-03-05T21:53:09.364Z,45.30
2023-03-05T21:55:59.554Z,45.30
2023-03-05T21:58:26.179Z,45.10
2023-03-05T22:00:52.897Z,45.20
2023-03-05T22:03:19.591Z,45.30
2023-03-05T22:05:46.133Z,45.20
2023-03-05T22:08:12.791Z,45.10
2023-03-05T22:10:40.255Z,45.40
2023-03-05T22:13:10.643Z,45.30
2023-03-05T22:15:44.431Z,45.20
2023-03-05T22:18:11.178Z,45.30
2023-03-05T22:20:38.196Z,45.40
2023-03-05T22:23:05.149Z,45.30
2023-03-05T22:25:32.111Z,45.40
2023-03-05T22:27:58.681Z,45.50
2023-03-05T22:30:25.264Z,45.30
2023-03-05T22:32:51.858Z,45.30
2023-03-05T22:35:18.483Z,45.40
2023-03-05T22:37:45.115Z,45.60
2023-03-05T22:40:18.996Z,45.40
2023-03-05T22:42:45.869Z,45.40
2023-03-05T22:45:13.505Z,46.00
2023-03-05T22:47:40.143Z,45.70
2023-03-05T22:50:07.029Z,45.50
2023-03-05T22:52:33.781Z,45.50
2023-03-05T22:55:03.015Z,46.10
2023-03-05T22:57:29.694Z,45.60
2023-03-05T22:59:56.316Z,45.40
2023-03-05T23:02:22.889Z,45.70
2023-03-05T23:04:52.588Z,45.50
2023-03-05T23:07:20.511Z,46.00
2023-03-05T23:09:54.503Z,46.20
2023-03-05T23:12:21.884Z,46.00
2023-03-05T23:14:48.660Z,46.10
2023-03-05T23:17:15.292Z,46.10
2023-03-05T23:19:41.862Z,45.60
2023-03-05T23:22:11.541Z,45.50
2023-03-05T23:24:38.178Z,45.60
2023-03-05T23:27:07.985Z,45.70
2023-03-05T23:29:58.407Z,45.60
2023-03-05T23:32:28.038Z,45.40
2023-03-05T23:34:55.299Z,45.40
2023-03-05T23:37:21.925Z,45.50
2023-03-05T23:39:48.531Z,45.80
2023-03-05T23:42:15.120Z,45.30
2023-03-05T23:44:41.671Z,46.40
2023-03-05T23:47:08.306Z,45.50
2023-03-05T23:49:35.052Z,45.40
2023-03-05T23:52:01.671Z,45.60
2023-03-05T23:54:28.267Z,45.40
2023-03-05T23:56:54.863Z,45.20
2023-03-05T23:59:21.445Z,45.30
